sensor_id;sensor_type;location;lat;lon;timestamp;P1;durP1;ratioP1;P2;durP2;ratioP2
11334;SDS011;5722;42.620;23.374;2023-09-30T00:01:52;21.10;;;5.90;;
11334;SDS011;5722;42.620;23.374;2023-09-30T00:04:20;16.15;;;6.47;;
11334;SDS011;5722;42.620;23.374;2023-09-30T00:06:54;16.37;;;6.07;;
11334;SDS011;5722;42.620;23.374;2023-09-30T00:09:24;11.47;;;6.40;;
11334;SDS011;5722;42.620;23.374;2023-09-30T00:11:52;14.13;;;5.93;;
11334;SDS011;5722;42.620;23.374;2023-09-30T00:14:22;11.77;;;6.40;;
11334;SDS011;5722;42.620;23.374;2023-09-30T00:16:49;10.10;;;6.57;;
11334;SDS011;5722;42.620;23.374;2023-09-30T00:19:17;10.87;;;6.40;;
11334;SDS011;5722;42.620;23.374;2023-09-30T00:21:46;8.07;;;5.83;;
11334;SDS011;5722;42.620;23.374;2023-09-30T00:24:19;13.05;;;6.07;;
11334;SDS011;5722;42.620;23.374;2023-09-30T00:26:46;9.80;;;5.83;;
11334;SDS011;5722;42.620;23.374;2023-09-30T00:32:20;11.13;;;6.07;;
11334;SDS011;5722;42.620;23.374;2023-09-30T00:34:49;11.97;;;6.10;;
11334;SDS011;5722;42.620;23.374;2023-09-30T00:37:19;7.83;;;5.80;;
11334;SDS011;5722;42.620;23.374;2023-09-30T00:39:48;12.97;;;6.10;;
11334;SDS011;5722;42.620;23.374;2023-09-30T00:42:15;10.43;;;6.23;;
11334;SDS011;5722;42.620;23.374;2023-09-30T00:44:45;13.23;;;5.70;;
11334;SDS011;5722;42.620;23.374;2023-09-30T00:47:13;13.40;;;5.97;;
11334;SDS011;5722;42.620;23.374;2023-09-30T00:49:42;12.60;;;5.90;;
11334;SDS011;5722;42.620;23.374;2023-09-30T00:52:11;11.27;;;6.30;;
11334;SDS011;5722;42.620;23.374;2023-09-30T00:54:41;7.70;;;5.63;;
11334;SDS011;5722;42.620;23.374;2023-09-30T00:59:55;8.27;;;5.70;;
11334;SDS011;5722;42.620;23.374;2023-09-30T01:02:30;10.97;;;6.10;;
11334;SDS011;5722;42.620;23.374;2023-09-30T01:04:57;7.47;;;5.40;;
11334;SDS011;5722;42.620;23.374;2023-09-30T01:07:24;12.73;;;5.57;;
11334;SDS011;5722;42.620;23.374;2023-09-30T01:09:55;8.50;;;6.30;;
11334;SDS011;5722;42.620;23.374;2023-09-30T01:12:30;13.83;;;6.30;;
11334;SDS011;5722;42.620;23.374;2023-09-30T01:15:14;11.90;;;6.30;;
11334;SDS011;5722;42.620;23.374;2023-09-30T01:17:45;10.73;;;5.97;;
11334;SDS011;5722;42.620;23.374;2023-09-30T01:20:14;9.33;;;6.07;;
11334;SDS011;5722;42.620;23.374;2023-09-30T01:22:46;9.30;;;5.90;;
11334;SDS011;5722;42.620;23.374;2023-09-30T01:25:15;10.77;;;6.20;;
11334;SDS011;5722;42.620;23.374;2023-09-30T01:27:54;9.33;;;6.67;;
11334;SDS011;5722;42.620;23.374;2023-09-30T01:30:33;10.60;;;5.87;;
11334;SDS011;5722;42.620;23.374;2023-09-30T01:33:02;14.10;;;6.50;;
11334;SDS011;5722;42.620;23.374;2023-09-30T01:35:30;8.40;;;6.30;;
11334;SDS011;5722;42.620;23.374;2023-09-30T01:38:00;6.60;;;5.87;;
11334;SDS011;5722;42.620;23.374;2023-09-30T01:40:27;8.70;;;5.37;;
11334;SDS011;5722;42.620;23.374;2023-09-30T01:42:57;8.43;;;5.87;;
11334;SDS011;5722;42.620;23.374;2023-09-30T01:45:30;11.93;;;6.37;;
11334;SDS011;5722;42.620;23.374;2023-09-30T01:48:04;9.80;;;5.53;;
11334;SDS011;5722;42.620;23.374;2023-09-30T01:50:44;13.57;;;5.77;;
11334;SDS011;5722;42.620;23.374;2023-09-30T01:53:32;10.40;;;6.47;;
11334;SDS011;5722;42.620;23.374;2023-09-30T01:56:16;10.33;;;6.50;;
11334;SDS011;5722;42.620;23.374;2023-09-30T01:58:50;7.50;;;5.90;;
11334;SDS011;5722;42.620;23.374;2023-09-30T02:01:39;9.70;;;6.00;;
11334;SDS011;5722;42.620;23.374;2023-09-30T02:04:25;9.20;;;5.77;;
11334;SDS011;5722;42.620;23.374;2023-09-30T02:07:11;12.43;;;5.77;;
11334;SDS011;5722;42.620;23.374;2023-09-30T02:09:51;8.90;;;5.93;;
11334;SDS011;5722;42.620;23.374;2023-09-30T02:18:02;9.63;;;6.13;;
11334;SDS011;5722;42.620;23.374;2023-09-30T02:20:56;8.90;;;5.97;;
11334;SDS011;5722;42.620;23.374;2023-09-30T02:23:29;9.23;;;5.90;;
11334;SDS011;5722;42.620;23.374;2023-09-30T02:29:06;9.97;;;5.83;;
11334;SDS011;5722;42.620;23.374;2023-09-30T02:31:53;10.10;;;5.90;;
11334;SDS011;5722;42.620;23.374;2023-09-30T02:34:26;9.97;;;6.00;;
11334;SDS011;5722;42.620;23.374;2023-09-30T02:36:57;8.87;;;6.23;;
11334;SDS011;5722;42.620;23.374;2023-09-30T02:39:27;11.90;;;5.83;;
11334;SDS011;5722;42.620;23.374;2023-09-30T02:42:01;11.37;;;6.50;;
11334;SDS011;5722;42.620;23.374;2023-09-30T02:47:27;14.00;;;7.30;;
11334;SDS011;5722;42.620;23.374;2023-09-30T02:50:04;8.17;;;7.37;;
11334;SDS011;5722;42.620;23.374;2023-09-30T02:52:35;8.63;;;7.40;;
11334;SDS011;5722;42.620;23.374;2023-09-30T02:55:05;19.23;;;7.17;;
11334;SDS011;5722;42.620;23.374;2023-09-30T02:57:42;12.80;;;6.40;;
11334;SDS011;5722;42.620;23.374;2023-09-30T03:00:15;16.07;;;7.07;;
11334;SDS011;5722;42.620;23.374;2023-09-30T03:02:55;18.03;;;7.00;;
11334;SDS011;5722;42.620;23.374;2023-09-30T03:05:32;13.37;;;6.83;;
11334;SDS011;5722;42.620;23.374;2023-09-30T03:08:06;12.80;;;6.77;;
11334;SDS011;5722;42.620;23.374;2023-09-30T03:10:36;15.77;;;7.00;;
11334;SDS011;5722;42.620;23.374;2023-09-30T03:13:07;20.30;;;6.90;;
11334;SDS011;5722;42.620;23.374;2023-09-30T03:15:50;11.43;;;6.87;;
11334;SDS011;5722;42.620;23.374;2023-09-30T03:21:14;15.67;;;6.73;;
11334;SDS011;5722;42.620;23.374;2023-09-30T03:23:47;11.87;;;6.87;;
11334;SDS011;5722;42.620;23.374;2023-09-30T03:26:14;12.23;;;7.10;;
11334;SDS011;5722;42.620;23.374;2023-09-30T03:28:56;10.13;;;6.53;;
11334;SDS011;5722;42.620;23.374;2023-09-30T03:31:31;9.07;;;5.90;;
11334;SDS011;5722;42.620;23.374;2023-09-30T03:34:06;10.67;;;6.30;;
11334;SDS011;5722;42.620;23.374;2023-09-30T03:36:35;8.87;;;5.83;;
11334;SDS011;5722;42.620;23.374;2023-09-30T03:39:06;9.60;;;6.50;;
11334;SDS011;5722;42.620;23.374;2023-09-30T03:41:43;11.57;;;6.70;;
11334;SDS011;5722;42.620;23.374;2023-09-30T03:44:10;9.77;;;6.60;;
11334;SDS011;5722;42.620;23.374;2023-09-30T03:46:43;8.50;;;6.17;;
11334;SDS011;5722;42.620;23.374;2023-09-30T03:49:23;8.43;;;6.60;;
11334;SDS011;5722;42.620;23.374;2023-09-30T03:51:52;7.67;;;6.20;;
11334;SDS011;5722;42.620;23.374;2023-09-30T03:54:24;8.63;;;6.73;;
11334;SDS011;5722;42.620;23.374;2023-09-30T03:56:54;9.10;;;6.73;;
11334;SDS011;5722;42.620;23.374;2023-09-30T03:59:28;12.93;;;6.83;;
11334;SDS011;5722;42.620;23.374;2023-09-30T04:02:01;12.73;;;7.30;;
11334;SDS011;5722;42.620;23.374;2023-09-30T04:04:30;8.53;;;7.00;;
11334;SDS011;5722;42.620;23.374;2023-09-30T04:07:01;10.70;;;6.77;;
11334;SDS011;5722;42.620;23.374;2023-09-30T04:09:32;11.33;;;6.70;;
11334;SDS011;5722;42.620;23.374;2023-09-30T04:15:11;11.27;;;6.40;;
11334;SDS011;5722;42.620;23.374;2023-09-30T04:17:45;7.47;;;6.50;;
11334;SDS011;5722;42.620;23.374;2023-09-30T04:20:13;7.93;;;6.90;;
11334;SDS011;5722;42.620;23.374;2023-09-30T04:25:48;10.43;;;7.00;;
11334;SDS011;5722;42.620;23.374;2023-09-30T04:28:19;9.63;;;6.63;;
11334;SDS011;5722;42.620;23.374;2023-09-30T04:30:46;11.53;;;7.03;;
11334;SDS011;5722;42.620;23.374;2023-09-30T04:33:16;7.73;;;6.87;;
11334;SDS011;5722;42.620;23.374;2023-09-30T04:35:49;9.27;;;6.40;;
11334;SDS011;5722;42.620;23.374;2023-09-30T04:38:18;10.90;;;7.03;;
11334;SDS011;5722;42.620;23.374;2023-09-30T04:40:46;13.33;;;6.90;;
11334;SDS011;5722;42.620;23.374;2023-09-30T04:43:20;14.00;;;6.97;;
11334;SDS011;5722;42.620;23.374;2023-09-30T04:45:50;14.93;;;6.93;;
11334;SDS011;5722;42.620;23.374;2023-09-30T04:48:31;9.23;;;6.70;;
11334;SDS011;5722;42.620;23.374;2023-09-30T04:51:15;13.30;;;6.93;;
11334;SDS011;5722;42.620;23.374;2023-09-30T04:53:50;10.63;;;6.63;;
11334;SDS011;5722;42.620;23.374;2023-09-30T04:56:20;14.10;;;7.90;;
11334;SDS011;5722;42.620;23.374;2023-09-30T04:58:52;11.23;;;7.73;;
11334;SDS011;5722;42.620;23.374;2023-09-30T05:01:23;9.00;;;6.40;;
11334;SDS011;5722;42.620;23.374;2023-09-30T05:03:56;10.27;;;7.30;;
11334;SDS011;5722;42.620;23.374;2023-09-30T05:06:27;11.30;;;7.10;;
11334;SDS011;5722;42.620;23.374;2023-09-30T05:08:59;11.37;;;6.63;;
11334;SDS011;5722;42.620;23.374;2023-09-30T05:11:29;15.77;;;6.60;;
11334;SDS011;5722;42.620;23.374;2023-09-30T05:13:58;15.10;;;8.00;;
11334;SDS011;5722;42.620;23.374;2023-09-30T05:16:40;14.07;;;7.97;;
11334;SDS011;5722;42.620;23.374;2023-09-30T05:19:13;9.50;;;6.90;;
11334;SDS011;5722;42.620;23.374;2023-09-30T05:21:41;10.87;;;9.30;;
11334;SDS011;5722;42.620;23.374;2023-09-30T05:24:11;14.90;;;8.40;;
11334;SDS011;5722;42.620;23.374;2023-09-30T05:26:49;12.90;;;7.23;;
11334;SDS011;5722;42.620;23.374;2023-09-30T05:29:21;10.80;;;8.10;;
11334;SDS011;5722;42.620;23.374;2023-09-30T05:31:51;22.20;;;8.47;;
11334;SDS011;5722;42.620;23.374;2023-09-30T05:34:18;11.33;;;7.90;;
11334;SDS011;5722;42.620;23.374;2023-09-30T05:36:50;20.80;;;8.13;;
11334;SDS011;5722;42.620;23.374;2023-09-30T05:39:22;14.30;;;7.43;;
11334;SDS011;5722;42.620;23.374;2023-09-30T05:44:35;10.00;;;7.07;;
11334;SDS011;5722;42.620;23.374;2023-09-30T05:47:02;10.37;;;6.60;;
11334;SDS011;5722;42.620;23.374;2023-09-30T05:49:29;10.03;;;6.37;;
11334;SDS011;5722;42.620;23.374;2023-09-30T05:52:00;8.60;;;6.20;;
11334;SDS011;5722;42.620;23.374;2023-09-30T05:54:42;12.17;;;7.40;;
11334;SDS011;5722;42.620;23.374;2023-09-30T05:57:11;15.27;;;6.83;;
11334;SDS011;5722;42.620;23.374;2023-09-30T06:02:22;23.40;;;8.77;;
11334;SDS011;5722;42.620;23.374;2023-09-30T06:04:52;24.37;;;9.40;;
11334;SDS011;5722;42.620;23.374;2023-09-30T06:07:21;21.90;;;9.40;;
11334;SDS011;5722;42.620;23.374;2023-09-30T06:10:01;17.50;;;9.47;;
11334;SDS011;5722;42.620;23.374;2023-09-30T06:12:30;17.50;;;10.40;;
11334;SDS011;5722;42.620;23.374;2023-09-30T06:14:57;19.85;;;9.75;;
11334;SDS011;5722;42.620;23.374;2023-09-30T06:17:28;18.30;;;9.02;;
11334;SDS011;5722;42.620;23.374;2023-09-30T06:20:02;18.20;;;8.60;;
11334;SDS011;5722;42.620;23.374;2023-09-30T06:22:36;17.85;;;8.55;;
11334;SDS011;5722;42.620;23.374;2023-09-30T06:25:10;19.73;;;8.27;;
11334;SDS011;5722;42.620;23.374;2023-09-30T06:27:39;15.82;;;8.27;;
11334;SDS011;5722;42.620;23.374;2023-09-30T06:30:10;14.55;;;7.32;;
11334;SDS011;5722;42.620;23.374;2023-09-30T06:32:45;15.43;;;6.43;;
11334;SDS011;5722;42.620;23.374;2023-09-30T06:35:13;18.48;;;6.72;;
11334;SDS011;5722;42.620;23.374;2023-09-30T06:37:42;15.05;;;6.70;;
11334;SDS011;5722;42.620;23.374;2023-09-30T06:40:10;13.65;;;5.80;;
11334;SDS011;5722;42.620;23.374;2023-09-30T06:42:40;19.60;;;7.30;;
11334;SDS011;5722;42.620;23.374;2023-09-30T06:45:16;13.73;;;6.13;;
11334;SDS011;5722;42.620;23.374;2023-09-30T06:47:49;17.23;;;6.35;;
11334;SDS011;5722;42.620;23.374;2023-09-30T06:50:18;16.65;;;6.63;;
11334;SDS011;5722;42.620;23.374;2023-09-30T06:52:49;14.38;;;7.05;;
11334;SDS011;5722;42.620;23.374;2023-09-30T06:55:24;20.48;;;7.18;;
11334;SDS011;5722;42.620;23.374;2023-09-30T06:58:03;18.48;;;6.82;;
11334;SDS011;5722;42.620;23.374;2023-09-30T07:00:35;12.70;;;6.38;;
11334;SDS011;5722;42.620;23.374;2023-09-30T07:03:07;18.17;;;6.75;;
11334;SDS011;5722;42.620;23.374;2023-09-30T07:05:52;9.52;;;6.15;;
11334;SDS011;5722;42.620;23.374;2023-09-30T07:08:21;14.57;;;6.50;;
11334;SDS011;5722;42.620;23.374;2023-09-30T07:10:54;12.18;;;7.00;;
11334;SDS011;5722;42.620;23.374;2023-09-30T07:13:21;16.80;;;6.78;;
11334;SDS011;5722;42.620;23.374;2023-09-30T07:15:56;14.20;;;5.70;;
11334;SDS011;5722;42.620;23.374;2023-09-30T07:18:27;12.60;;;5.57;;
11334;SDS011;5722;42.620;23.374;2023-09-30T07:20:58;18.65;;;6.20;;
11334;SDS011;5722;42.620;23.374;2023-09-30T07:23:27;12.55;;;5.53;;
11334;SDS011;5722;42.620;23.374;2023-09-30T07:26:00;15.52;;;5.88;;
11334;SDS011;5722;42.620;23.374;2023-09-30T07:28:42;10.98;;;5.50;;
11334;SDS011;5722;42.620;23.374;2023-09-30T07:31:14;8.95;;;5.25;;
11334;SDS011;5722;42.620;23.374;2023-09-30T07:36:31;15.98;;;5.35;;
11334;SDS011;5722;42.620;23.374;2023-09-30T07:39:00;16.05;;;5.57;;
11334;SDS011;5722;42.620;23.374;2023-09-30T07:41:35;14.93;;;5.85;;
11334;SDS011;5722;42.620;23.374;2023-09-30T07:44:09;9.75;;;5.40;;
11334;SDS011;5722;42.620;23.374;2023-09-30T07:46:45;15.80;;;5.25;;
11334;SDS011;5722;42.620;23.374;2023-09-30T07:49:18;13.27;;;5.13;;
11334;SDS011;5722;42.620;23.374;2023-09-30T07:51:47;16.77;;;5.18;;
11334;SDS011;5722;42.620;23.374;2023-09-30T07:54:14;9.20;;;4.47;;
11334;SDS011;5722;42.620;23.374;2023-09-30T07:56:46;11.07;;;4.53;;
11334;SDS011;5722;42.620;23.374;2023-09-30T07:59:17;7.80;;;4.45;;
11334;SDS011;5722;42.620;23.374;2023-09-30T08:01:47;11.00;;;4.90;;
11334;SDS011;5722;42.620;23.374;2023-09-30T08:04:15;16.35;;;4.60;;
11334;SDS011;5722;42.620;23.374;2023-09-30T08:06:45;12.15;;;4.80;;
11334;SDS011;5722;42.620;23.374;2023-09-30T08:09:14;13.73;;;4.97;;
11334;SDS011;5722;42.620;23.374;2023-09-30T08:11:44;14.07;;;5.10;;
11334;SDS011;5722;42.620;23.374;2023-09-30T08:14:15;13.38;;;5.10;;
11334;SDS011;5722;42.620;23.374;2023-09-30T08:16:42;14.35;;;5.55;;
11334;SDS011;5722;42.620;23.374;2023-09-30T08:19:11;9.52;;;4.88;;
11334;SDS011;5722;42.620;23.374;2023-09-30T08:21:39;13.77;;;5.30;;
11334;SDS011;5722;42.620;23.374;2023-09-30T08:24:08;13.43;;;5.68;;
11334;SDS011;5722;42.620;23.374;2023-09-30T08:26:45;9.55;;;5.25;;
11334;SDS011;5722;42.620;23.374;2023-09-30T08:29:15;11.45;;;5.78;;
11334;SDS011;5722;42.620;23.374;2023-09-30T08:31:50;15.07;;;6.13;;
11334;SDS011;5722;42.620;23.374;2023-09-30T08:34:22;7.88;;;5.90;;
11334;SDS011;5722;42.620;23.374;2023-09-30T08:36:51;13.10;;;6.10;;
11334;SDS011;5722;42.620;23.374;2023-09-30T08:39:17;12.55;;;5.55;;
11334;SDS011;5722;42.620;23.374;2023-09-30T08:41:50;11.82;;;6.00;;
11334;SDS011;5722;42.620;23.374;2023-09-30T08:44:19;15.95;;;6.05;;
11334;SDS011;5722;42.620;23.374;2023-09-30T08:46:48;14.98;;;5.88;;
11334;SDS011;5722;42.620;23.374;2023-09-30T08:49:20;13.80;;;6.40;;
11334;SDS011;5722;42.620;23.374;2023-09-30T08:51:55;8.40;;;6.13;;
11334;SDS011;5722;42.620;23.374;2023-09-30T08:54:43;11.35;;;6.00;;
11334;SDS011;5722;42.620;23.374;2023-09-30T08:57:23;11.00;;;6.28;;
11334;SDS011;5722;42.620;23.374;2023-09-30T08:59:54;9.95;;;6.55;;
11334;SDS011;5722;42.620;23.374;2023-09-30T09:02:36;10.10;;;6.32;;
11334;SDS011;5722;42.620;23.374;2023-09-30T09:05:03;10.77;;;6.43;;
11334;SDS011;5722;42.620;23.374;2023-09-30T09:07:31;15.70;;;5.95;;
11334;SDS011;5722;42.620;23.374;2023-09-30T09:10:04;13.45;;;6.88;;
11334;SDS011;5722;42.620;23.374;2023-09-30T09:12:42;17.77;;;6.55;;
11334;SDS011;5722;42.620;23.374;2023-09-30T09:15:23;11.93;;;6.32;;
11334;SDS011;5722;42.620;23.374;2023-09-30T09:17:59;11.57;;;6.10;;
11334;SDS011;5722;42.620;23.374;2023-09-30T09:20:42;8.18;;;5.85;;
11334;SDS011;5722;42.620;23.374;2023-09-30T09:23:11;14.63;;;6.47;;
11334;SDS011;5722;42.620;23.374;2023-09-30T09:25:41;7.80;;;6.25;;
11334;SDS011;5722;42.620;23.374;2023-09-30T09:28:11;13.25;;;6.50;;
11334;SDS011;5722;42.620;23.374;2023-09-30T09:33:20;15.40;;;6.38;;
11334;SDS011;5722;42.620;23.374;2023-09-30T09:35:54;13.55;;;6.40;;
11334;SDS011;5722;42.620;23.374;2023-09-30T09:41:17;10.02;;;6.40;;
11334;SDS011;5722;42.620;23.374;2023-09-30T09:44:05;13.75;;;6.10;;
11334;SDS011;5722;42.620;23.374;2023-09-30T09:46:45;12.48;;;6.13;;
11334;SDS011;5722;42.620;23.374;2023-09-30T09:49:24;9.10;;;6.10;;
11334;SDS011;5722;42.620;23.374;2023-09-30T09:51:58;11.63;;;5.93;;
11334;SDS011;5722;42.620;23.374;2023-09-30T09:54:25;13.73;;;5.70;;
11334;SDS011;5722;42.620;23.374;2023-09-30T09:56:53;16.38;;;5.70;;
11334;SDS011;5722;42.620;23.374;2023-09-30T09:59:28;12.38;;;5.15;;
11334;SDS011;5722;42.620;23.374;2023-09-30T10:01:57;13.55;;;5.80;;
11334;SDS011;5722;42.620;23.374;2023-09-30T10:04:41;15.02;;;6.00;;
11334;SDS011;5722;42.620;23.374;2023-09-30T10:07:10;8.65;;;5.90;;
11334;SDS011;5722;42.620;23.374;2023-09-30T10:09:39;13.27;;;5.55;;
11334;SDS011;5722;42.620;23.374;2023-09-30T10:12:12;7.95;;;5.30;;
11334;SDS011;5722;42.620;23.374;2023-09-30T10:14:42;7.80;;;4.78;;
11334;SDS011;5722;42.620;23.374;2023-09-30T10:17:11;11.57;;;5.55;;
11334;SDS011;5722;42.620;23.374;2023-09-30T10:22:25;8.48;;;5.20;;
11334;SDS011;5722;42.620;23.374;2023-09-30T10:25:01;10.35;;;5.00;;
11334;SDS011;5722;42.620;23.374;2023-09-30T10:33:39;11.48;;;4.50;;
11334;SDS011;5722;42.620;23.374;2023-09-30T10:36:31;7.43;;;3.97;;
11334;SDS011;5722;42.620;23.374;2023-09-30T10:39:00;10.05;;;4.50;;
11334;SDS011;5722;42.620;23.374;2023-09-30T10:44:39;6.35;;;4.10;;
11334;SDS011;5722;42.620;23.374;2023-09-30T10:49:59;11.75;;;4.63;;
11334;SDS011;5722;42.620;23.374;2023-09-30T10:52:34;6.50;;;4.55;;
11334;SDS011;5722;42.620;23.374;2023-09-30T11:00:59;9.40;;;3.50;;
11334;SDS011;5722;42.620;23.374;2023-09-30T11:12:37;9.50;;;3.50;;
11334;SDS011;5722;42.620;23.374;2023-09-30T11:18:23;7.60;;;3.72;;
11334;SDS011;5722;42.620;23.374;2023-09-30T11:26:46;6.57;;;3.33;;
11334;SDS011;5722;42.620;23.374;2023-09-30T11:29:16;5.60;;;3.60;;
11334;SDS011;5722;42.620;23.374;2023-09-30T11:31:57;8.40;;;3.53;;
11334;SDS011;5722;42.620;23.374;2023-09-30T11:34:31;7.32;;;3.65;;
11334;SDS011;5722;42.620;23.374;2023-09-30T11:37:08;5.75;;;3.53;;
11334;SDS011;5722;42.620;23.374;2023-09-30T11:39:51;5.82;;;3.75;;
11334;SDS011;5722;42.620;23.374;2023-09-30T11:45:30;12.38;;;4.10;;
11334;SDS011;5722;42.620;23.374;2023-09-30T11:48:15;7.63;;;3.85;;
11334;SDS011;5722;42.620;23.374;2023-09-30T11:50:46;7.15;;;3.95;;
11334;SDS011;5722;42.620;23.374;2023-09-30T11:53:23;6.05;;;3.88;;
11334;SDS011;5722;42.620;23.374;2023-09-30T11:56:15;5.35;;;3.90;;
11334;SDS011;5722;42.620;23.374;2023-09-30T11:58:57;8.40;;;4.05;;
11334;SDS011;5722;42.620;23.374;2023-09-30T12:01:28;9.15;;;3.92;;
11334;SDS011;5722;42.620;23.374;2023-09-30T12:04:02;5.93;;;3.97;;
11334;SDS011;5722;42.620;23.374;2023-09-30T12:06:50;7.35;;;4.10;;
11334;SDS011;5722;42.620;23.374;2023-09-30T12:12:19;4.57;;;3.85;;
11334;SDS011;5722;42.620;23.374;2023-09-30T12:14:48;6.40;;;3.80;;
11334;SDS011;5722;42.620;23.374;2023-09-30T12:23:02;7.97;;;4.95;;
11334;SDS011;5722;42.620;23.374;2023-09-30T12:25:35;9.07;;;4.40;;
11334;SDS011;5722;42.620;23.374;2023-09-30T12:28:09;7.55;;;4.43;;
11334;SDS011;5722;42.620;23.374;2023-09-30T12:30:43;8.30;;;4.15;;
11334;SDS011;5722;42.620;23.374;2023-09-30T12:33:13;8.30;;;4.38;;
11334;SDS011;5722;42.620;23.374;2023-09-30T12:35:46;8.65;;;4.60;;
11334;SDS011;5722;42.620;23.374;2023-09-30T12:38:19;12.82;;;4.63;;
11334;SDS011;5722;42.620;23.374;2023-09-30T12:40:49;11.73;;;4.78;;
11334;SDS011;5722;42.620;23.374;2023-09-30T12:43:27;11.05;;;4.88;;
11334;SDS011;5722;42.620;23.374;2023-09-30T12:46:18;7.15;;;4.30;;
11334;SDS011;5722;42.620;23.374;2023-09-30T12:48:56;13.50;;;4.85;;
11334;SDS011;5722;42.620;23.374;2023-09-30T12:51:25;12.32;;;4.63;;
11334;SDS011;5722;42.620;23.374;2023-09-30T12:54:07;8.95;;;4.70;;
11334;SDS011;5722;42.620;23.374;2023-09-30T12:56:40;11.18;;;5.10;;
11334;SDS011;5722;42.620;23.374;2023-09-30T12:59:09;10.55;;;4.55;;
11334;SDS011;5722;42.620;23.374;2023-09-30T13:01:39;5.80;;;4.45;;
11334;SDS011;5722;42.620;23.374;2023-09-30T13:06:51;5.68;;;4.20;;
11334;SDS011;5722;42.620;23.374;2023-09-30T13:12:19;7.05;;;4.25;;
11334;SDS011;5722;42.620;23.374;2023-09-30T13:14:46;9.90;;;4.50;;
11334;SDS011;5722;42.620;23.374;2023-09-30T13:17:16;6.40;;;4.53;;
11334;SDS011;5722;42.620;23.374;2023-09-30T13:19:43;8.63;;;4.22;;
11334;SDS011;5722;42.620;23.374;2023-09-30T13:22:14;6.38;;;4.35;;
11334;SDS011;5722;42.620;23.374;2023-09-30T13:24:42;10.80;;;5.28;;
11334;SDS011;5722;42.620;23.374;2023-09-30T13:27:19;10.38;;;4.45;;
11334;SDS011;5722;42.620;23.374;2023-09-30T13:29:50;6.63;;;3.85;;
11334;SDS011;5722;42.620;23.374;2023-09-30T13:32:23;10.38;;;4.10;;
11334;SDS011;5722;42.620;23.374;2023-09-30T13:34:51;7.35;;;4.13;;
11334;SDS011;5722;42.620;23.374;2023-09-30T13:37:24;11.15;;;4.18;;
11334;SDS011;5722;42.620;23.374;2023-09-30T13:39:59;11.20;;;4.50;;
11334;SDS011;5722;42.620;23.374;2023-09-30T13:42:29;9.43;;;4.25;;
11334;SDS011;5722;42.620;23.374;2023-09-30T13:44:57;8.07;;;4.70;;
11334;SDS011;5722;42.620;23.374;2023-09-30T13:47:25;10.00;;;4.22;;
11334;SDS011;5722;42.620;23.374;2023-09-30T13:49:52;6.95;;;4.20;;
11334;SDS011;5722;42.620;23.374;2023-09-30T13:52:21;10.65;;;4.53;;
11334;SDS011;5722;42.620;23.374;2023-09-30T13:54:52;8.15;;;3.92;;
11334;SDS011;5722;42.620;23.374;2023-09-30T14:00:08;9.35;;;4.47;;
11334;SDS011;5722;42.620;23.374;2023-09-30T14:02:36;11.88;;;4.80;;
11334;SDS011;5722;42.620;23.374;2023-09-30T14:05:06;9.32;;;4.63;;
11334;SDS011;5722;42.620;23.374;2023-09-30T14:07:37;12.63;;;4.93;;
11334;SDS011;5722;42.620;23.374;2023-09-30T14:10:07;7.72;;;4.90;;
11334;SDS011;5722;42.620;23.374;2023-09-30T14:12:35;8.82;;;4.82;;
11334;SDS011;5722;42.620;23.374;2023-09-30T14:15:10;8.85;;;4.63;;
11334;SDS011;5722;42.620;23.374;2023-09-30T14:17:42;10.65;;;4.80;;
11334;SDS011;5722;42.620;23.374;2023-09-30T14:20:10;10.93;;;4.82;;
11334;SDS011;5722;42.620;23.374;2023-09-30T14:22:41;12.07;;;4.70;;
11334;SDS011;5722;42.620;23.374;2023-09-30T14:25:12;6.32;;;4.32;;
11334;SDS011;5722;42.620;23.374;2023-09-30T14:27:42;11.98;;;4.50;;
11334;SDS011;5722;42.620;23.374;2023-09-30T14:30:13;8.07;;;4.35;;
11334;SDS011;5722;42.620;23.374;2023-09-30T14:32:42;8.82;;;4.40;;
11334;SDS011;5722;42.620;23.374;2023-09-30T14:35:12;8.07;;;4.30;;
11334;SDS011;5722;42.620;23.374;2023-09-30T14:37:40;11.10;;;4.50;;
11334;SDS011;5722;42.620;23.374;2023-09-30T14:40:14;8.05;;;3.97;;
11334;SDS011;5722;42.620;23.374;2023-09-30T14:42:41;10.07;;;4.30;;
11334;SDS011;5722;42.620;23.374;2023-09-30T14:45:08;7.68;;;4.30;;
11334;SDS011;5722;42.620;23.374;2023-09-30T14:47:43;9.75;;;4.15;;
11334;SDS011;5722;42.620;23.374;2023-09-30T14:50:16;11.65;;;4.03;;
11334;SDS011;5722;42.620;23.374;2023-09-30T14:52:45;11.27;;;4.13;;
11334;SDS011;5722;42.620;23.374;2023-09-30T14:55:15;10.00;;;4.03;;
11334;SDS011;5722;42.620;23.374;2023-09-30T14:57:47;10.40;;;4.45;;
11334;SDS011;5722;42.620;23.374;2023-09-30T15:00:18;6.88;;;4.10;;
11334;SDS011;5722;42.620;23.374;2023-09-30T15:02:49;6.97;;;3.92;;
11334;SDS011;5722;42.620;23.374;2023-09-30T15:05:17;9.32;;;3.90;;
11334;SDS011;5722;42.620;23.374;2023-09-30T15:07:52;12.55;;;4.72;;
11334;SDS011;5722;42.620;23.374;2023-09-30T15:10:19;10.45;;;4.05;;
11334;SDS011;5722;42.620;23.374;2023-09-30T15:12:50;10.57;;;4.13;;
11334;SDS011;5722;42.620;23.374;2023-09-30T15:15:24;10.73;;;4.38;;
11334;SDS011;5722;42.620;23.374;2023-09-30T15:17:55;13.77;;;4.22;;
11334;SDS011;5722;42.620;23.374;2023-09-30T15:20:37;8.75;;;4.10;;
11334;SDS011;5722;42.620;23.374;2023-09-30T15:23:06;12.65;;;4.15;;
11334;SDS011;5722;42.620;23.374;2023-09-30T15:25:34;12.50;;;4.78;;
11334;SDS011;5722;42.620;23.374;2023-09-30T15:28:07;9.88;;;4.40;;
11334;SDS011;5722;42.620;23.374;2023-09-30T15:30:37;8.00;;;4.13;;
11334;SDS011;5722;42.620;23.374;2023-09-30T15:33:07;10.95;;;4.35;;
11334;SDS011;5722;42.620;23.374;2023-09-30T15:35:34;7.32;;;3.88;;
11334;SDS011;5722;42.620;23.374;2023-09-30T15:38:05;6.75;;;3.80;;
11334;SDS011;5722;42.620;23.374;2023-09-30T15:40:33;7.93;;;4.50;;
11334;SDS011;5722;42.620;23.374;2023-09-30T15:43:14;7.95;;;4.22;;
11334;SDS011;5722;42.620;23.374;2023-09-30T15:45:56;5.63;;;3.70;;
11334;SDS011;5722;42.620;23.374;2023-09-30T15:53:49;7.63;;;4.00;;
11334;SDS011;5722;42.620;23.374;2023-09-30T15:56:16;9.13;;;4.00;;
11334;SDS011;5722;42.620;23.374;2023-09-30T15:58:50;7.55;;;4.07;;
11334;SDS011;5722;42.620;23.374;2023-09-30T16:01:19;9.80;;;4.55;;
11334;SDS011;5722;42.620;23.374;2023-09-30T16:03:49;7.65;;;4.47;;
11334;SDS011;5722;42.620;23.374;2023-09-30T16:06:18;10.38;;;4.68;;
11334;SDS011;5722;42.620;23.374;2023-09-30T16:08:45;13.52;;;6.35;;
11334;SDS011;5722;42.620;23.374;2023-09-30T16:11:29;17.48;;;6.78;;
11334;SDS011;5722;42.620;23.374;2023-09-30T16:17:04;16.73;;;5.63;;
11334;SDS011;5722;42.620;23.374;2023-09-30T16:25:24;10.73;;;5.00;;
11334;SDS011;5722;42.620;23.374;2023-09-30T16:27:57;13.98;;;5.22;;
11334;SDS011;5722;42.620;23.374;2023-09-30T16:30:30;15.02;;;5.78;;
11334;SDS011;5722;42.620;23.374;2023-09-30T16:33:00;16.17;;;5.25;;
11334;SDS011;5722;42.620;23.374;2023-09-30T16:35:32;19.20;;;6.10;;
11334;SDS011;5722;42.620;23.374;2023-09-30T16:38:09;18.00;;;7.45;;
11334;SDS011;5722;42.620;23.374;2023-09-30T16:40:37;16.88;;;8.90;;
11334;SDS011;5722;42.620;23.374;2023-09-30T16:43:06;26.75;;;8.27;;
11334;SDS011;5722;42.620;23.374;2023-09-30T16:45:38;32.08;;;11.05;;
11334;SDS011;5722;42.620;23.374;2023-09-30T16:48:09;17.85;;;8.20;;
11334;SDS011;5722;42.620;23.374;2023-09-30T16:50:41;10.13;;;6.78;;
11334;SDS011;5722;42.620;23.374;2023-09-30T16:53:09;19.65;;;6.93;;
11334;SDS011;5722;42.620;23.374;2023-09-30T16:55:36;14.88;;;5.50;;
11334;SDS011;5722;42.620;23.374;2023-09-30T17:09:08;11.68;;;6.97;;
11334;SDS011;5722;42.620;23.374;2023-09-30T17:11:40;10.48;;;5.38;;
11334;SDS011;5722;42.620;23.374;2023-09-30T17:14:13;19.52;;;12.27;;